Time;durP1;ratioP1;P1;durP2;ratioP2;P2;SDS_P1;SDS_P2;PMS_P1;PMS_P2;Temp;Humidity;BMP_temperature;BMP_pressure;BME280_temperature;BME280_humidity;BME280_pressure;Samples;Min_cycle;Max_cycle;Signal;HPM_P1;HPM_P2
2023/06/19 00:01:43;;;;;;;6.95;4.93;;;;;;;;;;5010583;28;20277;-51
2023/06/19 00:04:10;;;;;;;6.40;4.82;;;;;;;;;;4995643;28;20455;-53
2023/06/19 00:06:35;;;;;;;6.78;4.97;;;;;;;;;;4994097;28;20125;-54
2023/06/19 00:09:01;;;;;;;7.38;5.05;;;;;;;;;;5002629;28;20176;-49
2023/06/19 00:11:26;;;;;;;6.97;4.88;;;;;;;;;;5013381;28;20029;-58
2023/06/19 00:13:52;;;;;;;5.93;4.78;;;;;;;;;;5012372;28;20037;-50
2023/06/19 00:16:19;;;;;;;6.32;4.85;;;;;;;;;;5000038;28;20052;-53
2023/06/19 00:18:44;;;;;;;7.80;5.15;;;;;;;;;;4999564;28;20531;-53
2023/06/19 00:21:10;;;;;;;6.10;5.13;;;;;;;;;;4993177;28;20034;-53
2023/06/19 00:23:35;;;;;;;7.30;5.10;;;;;;;;;;4995056;28;20074;-53
2023/06/19 00:26:01;;;;;;;7.63;5.22;;;;;;;;;;4994278;28;20045;-51
2023/06/19 00:28:30;;;;;;;8.63;5.28;;;;;;;;;;4998870;28;20065;-57
2023/06/19 00:30:55;;;;;;;6.68;5.20;;;;;;;;;;5030825;28;20026;-53
2023/06/19 00:33:21;;;;;;;7.53;5.15;;;;;;;;;;5016557;28;20490;-56
2023/06/19 00:35:47;;;;;;;6.60;5.13;;;;;;;;;;5010434;28;20542;-54
2023/06/19 00:38:12;;;;;;;6.65;5.53;;;;;;;;;;5013746;28;20434;-54
2023/06/19 00:40:37;;;;;;;7.90;5.32;;;;;;;;;;5011255;28;20073;-51
2023/06/19 00:43:03;;;;;;;7.15;5.15;;;;;;;;;;5011791;28;20030;-51
2023/06/19 00:45:29;;;;;;;6.97;5.50;;;;;;;;;;5018584;28;20112;-58
2023/06/19 00:47:56;;;;;;;7.40;5.18;;;;;;;;;;5011448;28;20041;-53
2023/06/19 00:50:22;;;;;;;6.97;5.20;;;;;;;;;;5001854;28;20096;-56
2023/06/19 00:52:47;;;;;;;6.72;5.10;;;;;;;;;;5009374;28;20034;-56
2023/06/19 00:55:14;;;;;;;7.45;5.65;;;;;;;;;;5012902;28;20115;-54
2023/06/19 00:57:40;;;;;;;6.78;5.50;;;;;;;;;;4998422;28;20188;-56
2023/06/19 01:00:07;;;;;;;6.07;5.05;;;;;;;;;;4994944;28;20032;-53
2023/06/19 01:02:33;;;;;;;7.55;5.75;;;;;;;;;;5011360;28;20026;-55
2023/06/19 01:04:59;;;;;;;6.35;5.32;;;;;;;;;;5012430;28;20467;-54
2023/06/19 01:07:44;;;;;;;6.30;5.20;;;;;;;;;;5033174;28;20025;-55
2023/06/19 01:10:16;;;;;;;7.40;5.70;;;;;;;;;;5033059;28;20029;-57
2023/06/19 01:12:56;;;;;;;6.63;5.25;;;;;;;;;;5028053;28;20033;-56
2023/06/19 01:15:22;;;;;;;7.97;5.35;;;;;;;;;;5032883;28;20026;-55
2023/06/19 01:17:48;;;;;;;8.88;5.35;;;;;;;;;;4996952;28;20062;-55
2023/06/19 01:20:15;;;;;;;9.00;5.35;;;;;;;;;;5001715;28;20117;-50
2023/06/19 01:22:43;;;;;;;7.35;5.10;;;;;;;;;;5000477;28;20046;-55
2023/06/19 01:25:09;;;;;;;6.55;5.18;;;;;;;;;;5002150;28;20116;-52
2023/06/19 01:27:35;;;;;;;7.55;5.70;;;;;;;;;;5022021;28;20125;-54
2023/06/19 01:30:03;;;;;;;7.18;5.40;;;;;;;;;;5012446;28;20053;-53
2023/06/19 01:32:59;;;;;;;6.53;5.10;;;;;;;;;;5024146;28;20037;-58
2023/06/19 01:35:28;;;;;;;6.28;5.43;;;;;;;;;;4992892;28;20065;-53
2023/06/19 01:37:54;;;;;;;7.38;5.38;;;;;;;;;;4992170;28;20034;-52
2023/06/19 01:40:24;;;;;;;6.32;5.22;;;;;;;;;;4992238;28;20487;-54
2023/06/19 01:42:51;;;;;;;9.13;5.20;;;;;;;;;;4991684;28;20324;-53
2023/06/19 01:45:17;;;;;;;6.00;5.07;;;;;;;;;;5008040;28;20030;-52
2023/06/19 01:47:42;;;;;;;7.38;5.60;;;;;;;;;;5017673;28;20038;-56
2023/06/19 01:50:10;;;;;;;6.10;5.05;;;;;;;;;;5016930;28;20416;-56
2023/06/19 01:52:35;;;;;;;6.30;5.28;;;;;;;;;;5011595;28;20037;-53
2023/06/19 01:55:01;;;;;;;6.47;5.47;;;;;;;;;;5010151;28;20040;-54
2023/06/19 01:57:26;;;;;;;6.68;5.35;;;;;;;;;;4991585;28;20042;-54
2023/06/19 01:59:52;;;;;;;8.90;5.22;;;;;;;;;;5005185;28;20037;-51
2023/06/19 02:02:17;;;;;;;8.45;5.40;;;;;;;;;;5012350;28;20348;-52
2023/06/19 02:04:42;;;;;;;7.50;5.28;;;;;;;;;;5007784;28;20034;-56
2023/06/19 02:07:08;;;;;;;7.35;5.07;;;;;;;;;;4993068;28;20451;-55
2023/06/19 02:09:33;;;;;;;6.85;5.25;;;;;;;;;;4991621;28;20030;-58
2023/06/19 02:11:58;;;;;;;6.88;5.55;;;;;;;;;;4996780;28;20109;-52
2023/06/19 02:14:24;;;;;;;6.22;5.28;;;;;;;;;;5007573;28;20386;-55
2023/06/19 02:16:49;;;;;;;6.68;5.28;;;;;;;;;;4991291;28;20171;-56
2023/06/19 02:19:15;;;;;;;8.15;5.68;;;;;;;;;;4994068;28;20061;-56
2023/06/19 02:21:40;;;;;;;6.60;5.20;;;;;;;;;;5007991;28;20257;-53
2023/06/19 02:24:06;;;;;;;7.18;5.45;;;;;;;;;;4991790;28;20034;-55
2023/06/19 02:26:31;;;;;;;6.40;5.43;;;;;;;;;;4990650;28;20033;-57
2023/06/19 02:28:57;;;;;;;7.80;5.25;;;;;;;;;;5009719;28;20030;-55
2023/06/19 02:31:23;;;;;;;7.20;5.35;;;;;;;;;;5013337;28;20121;-55
2023/06/19 02:33:48;;;;;;;6.82;5.35;;;;;;;;;;4989648;28;20493;-55
2023/06/19 02:36:19;;;;;;;6.80;5.60;;;;;;;;;;5007951;28;20034;-54
2023/06/19 02:38:50;;;;;;;6.47;5.57;;;;;;;;;;5010993;28;20026;-54
2023/06/19 02:41:16;;;;;;;6.53;5.70;;;;;;;;;;5011029;28;20046;-55
2023/06/19 02:43:44;;;;;;;6.72;5.70;;;;;;;;;;5011082;28;20025;-55
2023/06/19 02:46:09;;;;;;;7.90;5.63;;;;;;;;;;5010520;28;20041;-53
2023/06/19 02:48:34;;;;;;;8.40;6.05;;;;;;;;;;4995997;28;20542;-57
2023/06/19 02:51:00;;;;;;;7.90;5.95;;;;;;;;;;4991940;28;20034;-53
2023/06/19 02:53:25;;;;;;;8.48;5.90;;;;;;;;;;4991895;28;20042;-54
2023/06/19 02:55:51;;;;;;;7.78;6.18;;;;;;;;;;5005920;28;20046;-53
2023/06/19 02:58:16;;;;;;;7.68;6.20;;;;;;;;;;5010726;28;20029;-51
2023/06/19 03:00:42;;;;;;;7.85;5.85;;;;;;;;;;4990334;28;20030;-53
2023/06/19 03:03:07;;;;;;;8.82;5.88;;;;;;;;;;4999652;28;20034;-54
2023/06/19 03:05:33;;;;;;;7.80;5.68;;;;;;;;;;4991900;28;20406;-50
2023/06/19 03:07:58;;;;;;;6.78;5.60;;;;;;;;;;4998690;28;20491;-55
2023/06/19 03:10:23;;;;;;;8.23;5.60;;;;;;;;;;4992032;28;20105;-54
2023/06/19 03:12:49;;;;;;;7.28;5.55;;;;;;;;;;4991139;28;20494;-53
2023/06/19 03:15:14;;;;;;;7.25;5.53;;;;;;;;;;5008018;28;20110;-54
2023/06/19 03:17:39;;;;;;;8.98;5.65;;;;;;;;;;4989389;28;20035;-51
2023/06/19 03:20:06;;;;;;;7.50;6.07;;;;;;;;;;4991131;28;20026;-53
2023/06/19 03:22:31;;;;;;;7.80;5.32;;;;;;;;;;5002285;28;20197;-53
2023/06/19 03:24:57;;;;;;;6.13;5.10;;;;;;;;;;4995060;28;20664;-59
2023/06/19 03:27:26;;;;;;;8.93;5.60;;;;;;;;;;4995255;28;20121;-53
2023/06/19 03:29:52;;;;;;;7.07;5.40;;;;;;;;;;5004167;28;20038;-52
2023/06/19 03:32:19;;;;;;;7.60;5.45;;;;;;;;;;5014402;28;20382;-54
2023/06/19 03:34:44;;;;;;;7.07;5.22;;;;;;;;;;5014101;28;20041;-50
2023/06/19 03:37:09;;;;;;;7.85;5.70;;;;;;;;;;5013445;28;20042;-55
2023/06/19 03:39:35;;;;;;;7.95;5.60;;;;;;;;;;5017911;28;20026;-55
2023/06/19 03:42:00;;;;;;;8.68;5.93;;;;;;;;;;5023917;28;20530;-52
2023/06/19 03:44:25;;;;;;;9.15;5.45;;;;;;;;;;5014770;28;20022;-54
2023/06/19 03:46:51;;;;;;;14.25;5.65;;;;;;;;;;5014061;28;20487;-55
2023/06/19 03:49:17;;;;;;;14.48;5.63;;;;;;;;;;5013787;28;20037;-53
2023/06/19 03:51:44;;;;;;;7.55;5.28;;;;;;;;;;5008218;28;20498;-52
2023/06/19 03:54:09;;;;;;;7.38;5.30;;;;;;;;;;4996109;28;20069;-56
2023/06/19 03:56:34;;;;;;;7.22;5.50;;;;;;;;;;4994897;28;20034;-53
2023/06/19 03:59:00;;;;;;;7.03;5.43;;;;;;;;;;5011125;28;20041;-56
2023/06/19 04:01:26;;;;;;;8.57;5.55;;;;;;;;;;5024804;28;20029;-56
2023/06/19 04:03:51;;;;;;;10.45;5.32;;;;;;;;;;5020588;28;20466;-54
2023/06/19 04:06:16;;;;;;;8.52;5.20;;;;;;;;;;4998645;28;20372;-56
2023/06/19 04:08:42;;;;;;;9.05;5.00;;;;;;;;;;5004408;28;20026;-57
2023/06/19 04:11:07;;;;;;;7.18;4.28;;;;;;;;;;5014484;28;20030;-55
2023/06/19 04:13:32;;;;;;;7.55;4.75;;;;;;;;;;5013797;28;20056;-58
2023/06/19 04:15:58;;;;;;;7.25;4.38;;;;;;;;;;5010802;28;20626;-55
2023/06/19 04:18:23;;;;;;;6.80;4.40;;;;;;;;;;5011828;28;20034;-55
2023/06/19 04:20:49;;;;;;;7.63;4.60;;;;;;;;;;5013181;28;20455;-51
2023/06/19 04:23:14;;;;;;;7.43;4.25;;;;;;;;;;5010142;28;20053;-51
2023/06/19 04:25:39;;;;;;;6.68;4.60;;;;;;;;;;5013022;28;20038;-57
2023/06/19 04:28:05;;;;;;;6.55;4.80;;;;;;;;;;5032454;28;20106;-51
2023/06/19 04:30:31;;;;;;;6.57;4.63;;;;;;;;;;5033820;28;20035;-49
2023/06/19 04:32:59;;;;;;;8.30;5.13;;;;;;;;;;5011594;28;20495;-50
2023/06/19 04:35:24;;;;;;;6.68;4.55;;;;;;;;;;5014100;28;20034;-50
2023/06/19 04:37:50;;;;;;;6.95;5.00;;;;;;;;;;5012974;28;20053;-51
2023/06/19 04:40:15;;;;;;;7.20;4.93;;;;;;;;;;5013182;28;20053;-51
2023/06/19 04:42:41;;;;;;;10.50;5.03;;;;;;;;;;5025945;28;20044;-58
2023/06/19 04:45:07;;;;;;;7.05;4.70;;;;;;;;;;5033000;28;20497;-52
2023/06/19 04:47:33;;;;;;;7.45;5.15;;;;;;;;;;5008481;28;20387;-53
2023/06/19 04:49:59;;;;;;;6.63;4.30;;;;;;;;;;4992237;28;20109;-53
2023/06/19 04:52:24;;;;;;;5.82;3.70;;;;;;;;;;4994040;28;20027;-56
2023/06/19 04:54:50;;;;;;;7.25;3.65;;;;;;;;;;5007772;28;20554;-56
2023/06/19 04:57:15;;;;;;;5.82;3.63;;;;;;;;;;5002655;28;20026;-57
2023/06/19 04:59:43;;;;;;;5.97;3.53;;;;;;;;;;4993432;28;20030;-58
2023/06/19 05:02:09;;;;;;;6.80;3.97;;;;;;;;;;4996563;28;20058;-55
2023/06/19 05:04:34;;;;;;;6.20;3.40;;;;;;;;;;4994102;28;20065;-58
2023/06/19 05:07:00;;;;;;;7.75;3.75;;;;;;;;;;5012235;28;20119;-55
2023/06/19 05:09:25;;;;;;;7.65;4.10;;;;;;;;;;5013995;28;20040;-54
2023/06/19 05:11:50;;;;;;;6.22;4.00;;;;;;;;;;5032278;28;20104;-52
2023/06/19 05:14:16;;;;;;;6.40;4.03;;;;;;;;;;5023088;28;20042;-51
2023/06/19 05:16:41;;;;;;;5.80;3.78;;;;;;;;;;5000458;28;20026;-57
2023/06/19 05:19:07;;;;;;;8.90;3.72;;;;;;;;;;5014976;28;20442;-52
2023/06/19 05:21:32;;;;;;;6.25;3.60;;;;;;;;;;5013142;28;20056;-56
2023/06/19 05:23:58;;;;;;;5.90;3.83;;;;;;;;;;5014905;28;20549;-56
2023/06/19 05:26:23;;;;;;;5.00;3.50;;;;;;;;;;5003509;28;20036;-57
2023/06/19 05:28:49;;;;;;;8.75;3.40;;;;;;;;;;5008989;28;20482;-58
2023/06/19 05:31:15;;;;;;;4.45;2.95;;;;;;;;;;5008446;28;20033;-58
2023/06/19 05:33:41;;;;;;;4.35;2.80;;;;;;;;;;5010069;28;20037;-56
2023/06/19 05:36:06;;;;;;;4.55;3.08;;;;;;;;;;5021930;28;20037;-57
2023/06/19 05:38:32;;;;;;;5.47;2.78;;;;;;;;;;5013750;28;20038;-59
2023/06/19 05:40:58;;;;;;;6.88;2.72;;;;;;;;;;5003271;28;20045;-57
2023/06/19 05:43:24;;;;;;;4.78;2.88;;;;;;;;;;4992085;28;20030;-54
2023/06/19 05:45:50;;;;;;;5.18;3.00;;;;;;;;;;5005286;28;20364;-57
2023/06/19 05:48:15;;;;;;;6.10;2.92;;;;;;;;;;5006300;28;20030;-57
2023/06/19 05:50:41;;;;;;;6.07;3.33;;;;;;;;;;4992875;28;20034;-53
2023/06/19 05:53:06;;;;;;;5.45;3.47;;;;;;;;;;5000975;28;20084;-56
2023/06/19 05:55:32;;;;;;;5.72;3.35;;;;;;;;;;4992737;28;20026;-57
2023/06/19 05:57:57;;;;;;;4.88;3.42;;;;;;;;;;5012958;28;20112;-59
2023/06/19 06:00:23;;;;;;;9.57;3.65;;;;;;;;;;5011979;28;20022;-58
2023/06/19 06:02:50;;;;;;;5.20;3.55;;;;;;;;;;5011252;28;20041;-55
2023/06/19 06:05:17;;;;;;;6.38;3.80;;;;;;;;;;4993806;28;20049;-57
2023/06/19 06:07:43;;;;;;;7.03;3.25;;;;;;;;;;5005817;28;20030;-56
2023/06/19 06:10:09;;;;;;;4.75;3.40;;;;;;;;;;5027426;28;20183;-53
2023/06/19 06:12:34;;;;;;;6.72;3.35;;;;;;;;;;5011905;28;20044;-51
2023/06/19 06:15:02;;;;;;;8.45;3.80;;;;;;;;;;4998736;28;20490;-57
2023/06/19 06:17:27;;;;;;;6.97;3.70;;;;;;;;;;5011552;28;20120;-57
2023/06/19 06:19:52;;;;;;;5.03;3.63;;;;;;;;;;5006845;28;20114;-51
2023/06/19 06:22:18;;;;;;;8.23;4.20;;;;;;;;;;4995901;28;20034;-57
2023/06/19 06:24:44;;;;;;;8.50;4.00;;;;;;;;;;4992177;28;20038;-58
2023/06/19 06:27:09;;;;;;;6.88;4.10;;;;;;;;;;4998658;28;20061;-58
2023/06/19 06:29:36;;;;;;;6.18;4.22;;;;;;;;;;5008183;28;20121;-56
2023/06/19 06:32:07;;;;;;;6.63;4.22;;;;;;;;;;4999932;28;20033;-57
2023/06/19 06:34:33;;;;;;;6.35;4.35;;;;;;;;;;5031608;28;20120;-57
2023/06/19 06:36:59;;;;;;;6.25;4.50;;;;;;;;;;5021830;28;20034;-55
2023/06/19 06:39:24;;;;;;;8.65;4.97;;;;;;;;;;5005194;28;20394;-56
2023/06/19 06:41:50;;;;;;;6.57;4.40;;;;;;;;;;4992446;28;20125;-56
2023/06/19 06:44:15;;;;;;;6.10;4.15;;;;;;;;;;5001023;28;20073;-54
2023/06/19 06:46:41;;;;;;;5.07;3.85;;;;;;;;;;4994018;28;20396;-57
2023/06/19 06:49:06;;;;;;;5.78;4.03;;;;;;;;;;5010589;28;20022;-56
2023/06/19 06:51:32;;;;;;;6.55;3.72;;;;;;;;;;5010201;28;20356;-53
2023/06/19 06:53:57;;;;;;;5.85;4.05;;;;;;;;;;5002562;28;20109;-56
2023/06/19 06:56:22;;;;;;;5.57;3.60;;;;;;;;;;5014569;28;20352;-52
2023/06/19 06:58:48;;;;;;;7.32;3.45;;;;;;;;;;5015013;28;20057;-58
2023/06/19 07:01:13;;;;;;;5.05;3.17;;;;;;;;;;5028376;28;20470;-52
2023/06/19 07:03:39;;;;;;;5.70;3.40;;;;;;;;;;5017438;28;20030;-56
2023/06/19 07:06:04;;;;;;;4.72;2.92;;;;;;;;;;5009089;28;20041;-57
2023/06/19 07:08:30;;;;;;;7.07;3.10;;;;;;;;;;5002234;28;20034;-53
2023/06/19 07:10:55;;;;;;;5.07;2.97;;;;;;;;;;4994805;28;20037;-57
2023/06/19 07:13:21;;;;;;;3.70;2.70;;;;;;;;;;5004578;28;20030;-53
2023/06/19 07:15:46;;;;;;;5.75;3.00;;;;;;;;;;5001011;28;20029;-59
2023/06/19 07:18:11;;;;;;;6.45;3.10;;;;;;;;;;5021526;28;20050;-58
2023/06/19 07:20:37;;;;;;;6.50;3.15;;;;;;;;;;5009023;28;20034;-58
2023/06/19 07:23:02;;;;;;;6.57;3.22;;;;;;;;;;5003290;28;20112;-57
2023/06/19 07:25:28;;;;;;;4.25;2.90;;;;;;;;;;5012669;28;20038;-57
2023/06/19 07:27:53;;;;;;;5.13;3.25;;;;;;;;;;5013767;28;20039;-55
2023/06/19 07:30:19;;;;;;;5.00;3.35;;;;;;;;;;5023491;28;20026;-55
2023/06/19 07:32:44;;;;;;;6.53;3.30;;;;;;;;;;5003907;28;20034;-57
2023/06/19 07:35:11;;;;;;;6.03;3.00;;;;;;;;;;5027883;28;20291;-57
2023/06/19 07:37:36;;;;;;;4.55;3.40;;;;;;;;;;5003449;28;20111;-57
2023/06/19 07:40:02;;;;;;;4.88;3.28;;;;;;;;;;5013931;28;20464;-56
2023/06/19 07:42:28;;;;;;;5.13;3.40;;;;;;;;;;5014483;28;20045;-58
2023/06/19 07:44:53;;;;;;;7.93;3.47;;;;;;;;;;5014030;28;20109;-56
2023/06/19 07:47:20;;;;;;;8.65;3.70;;;;;;;;;;5012820;28;20026;-57
2023/06/19 07:49:45;;;;;;;4.45;3.25;;;;;;;;;;5013194;28;20040;-58
2023/06/19 07:52:11;;;;;;;5.10;3.78;;;;;;;;;;5004322;28;20030;-58
2023/06/19 07:54:47;;;;;;;6.22;4.25;;;;;;;;;;4998446;28;20412;-57
2023/06/19 07:57:12;;;;;;;6.43;4.30;;;;;;;;;;5018387;28;20034;-58
2023/06/19 07:59:37;;;;;;;11.15;4.40;;;;;;;;;;5031138;28;20381;-54
2023/06/19 08:02:03;;;;;;;6.60;3.90;;;;;;;;;;5022231;28;20065;-49
2023/06/19 08:04:28;;;;;;;6.88;4.20;;;;;;;;;;5007889;28;20033;-59
2023/06/19 08:06:54;;;;;;;8.70;4.10;;;;;;;;;;4993426;28;20038;-57
2023/06/19 08:09:19;;;;;;;8.18;4.10;;;;;;;;;;5020285;28;20041;-56
2023/06/19 08:11:44;;;;;;;6.30;3.50;;;;;;;;;;5014207;28;20044;-57
2023/06/19 08:14:10;;;;;;;8.07;3.95;;;;;;;;;;5024655;28;20108;-57
2023/06/19 08:16:35;;;;;;;7.80;4.40;;;;;;;;;;5033758;28;20030;-57
2023/06/19 08:19:01;;;;;;;8.15;4.65;;;;;;;;;;5014864;28;20061;-56
2023/06/19 08:21:26;;;;;;;6.93;3.90;;;;;;;;;;5007459;28;20471;-56
2023/06/19 08:23:51;;;;;;;5.95;3.38;;;;;;;;;;5013329;28;20038;-61
2023/06/19 08:26:18;;;;;;;4.93;3.20;;;;;;;;;;5022344;28;20173;-56
2023/06/19 08:28:44;;;;;;;5.28;4.05;;;;;;;;;;5018444;28;20072;-57
2023/06/19 08:31:09;;;;;;;7.32;4.20;;;;;;;;;;4999153;28;20212;-56
2023/06/19 08:33:35;;;;;;;5.20;4.05;;;;;;;;;;5017944;28;20494;-56
2023/06/19 08:36:00;;;;;;;6.55;3.90;;;;;;;;;;5013018;28;20162;-57
2023/06/19 08:38:26;;;;;;;4.68;3.70;;;;;;;;;;5013013;28;20083;-48
2023/06/19 08:40:51;;;;;;;9.82;4.40;;;;;;;;;;5011527;28;20414;-55
2023/06/19 08:43:17;;;;;;;6.00;4.25;;;;;;;;;;5017776;28;20029;-59
2023/06/19 08:45:42;;;;;;;7.15;4.10;;;;;;;;;;5015093;28;20033;-58
2023/06/19 08:48:13;;;;;;;7.68;4.00;;;;;;;;;;5012174;28;20076;-55
2023/06/19 08:50:38;;;;;;;6.43;3.92;;;;;;;;;;5023442;28;20033;-55
2023/06/19 08:53:04;;;;;;;7.88;4.10;;;;;;;;;;5021361;28;20057;-57
2023/06/19 08:55:29;;;;;;;7.05;3.90;;;;;;;;;;5000204;28;20033;-54
2023/06/19 08:57:55;;;;;;;7.55;3.95;;;;;;;;;;5007611;28;20049;-57
2023/06/19 09:00:28;;;;;;;5.47;3.70;;;;;;;;;;5013130;28;20119;-53
2023/06/19 09:03:01;;;;;;;6.97;3.85;;;;;;;;;;5012038;28;20481;-58
2023/06/19 09:05:27;;;;;;;6.00;3.80;;;;;;;;;;5013088;28;20030;-57
2023/06/19 09:08:00;;;;;;;4.40;3.10;;;;;;;;;;5011910;28;20479;-57
2023/06/19 09:10:26;;;;;;;5.57;3.13;;;;;;;;;;5012983;28;20030;-57
2023/06/19 09:13:03;;;;;;;7.30;3.13;;;;;;;;;;5009470;28;20030;-56
2023/06/19 09:15:31;;;;;;;6.03;2.90;;;;;;;;;;5012793;28;20041;-56
2023/06/19 09:18:01;;;;;;;4.35;2.97;;;;;;;;;;5009120;28;20033;-52
2023/06/19 09:20:27;;;;;;;5.97;3.05;;;;;;;;;;5012602;28;20484;-55
2023/06/19 09:22:57;;;;;;;7.10;2.80;;;;;;;;;;5011234;28;20032;-58
2023/06/19 09:25:23;;;;;;;6.97;3.20;;;;;;;;;;5012997;28;20108;-55
2023/06/19 09:27:49;;;;;;;4.90;2.90;;;;;;;;;;5022218;28;20065;-57
2023/06/19 09:30:15;;;;;;;5.38;2.78;;;;;;;;;;4999015;28;20674;-57
2023/06/19 09:32:41;;;;;;;5.40;2.78;;;;;;;;;;5006399;28;20068;-57
2023/06/19 09:35:06;;;;;;;4.10;2.90;;;;;;;;;;5011490;28;20061;-57
2023/06/19 09:37:32;;;;;;;8.75;3.00;;;;;;;;;;5012678;28;20034;-57
2023/06/19 09:40:11;;;;;;;7.82;2.90;;;;;;;;;;5000807;28;20043;-59
2023/06/19 09:42:42;;;;;;;7.00;3.30;;;;;;;;;;4993376;28;20031;-56
2023/06/19 09:45:10;;;;;;;5.13;3.50;;;;;;;;;;5011754;28;20076;-56
2023/06/19 09:47:42;;;;;;;7.63;3.28;;;;;;;;;;4997156;28;20073;-57
2023/06/19 09:50:08;;;;;;;5.35;3.25;;;;;;;;;;4998611;28;20031;-57
2023/06/19 09:52:34;;;;;;;4.90;3.38;;;;;;;;;;4992552;28;20040;-58
2023/06/19 09:55:03;;;;;;;7.03;3.47;;;;;;;;;;5005660;28;20034;-51
2023/06/19 09:57:29;;;;;;;6.65;3.63;;;;;;;;;;5000123;28;20096;-59
2023/06/19 09:59:56;;;;;;;7.63;3.33;;;;;;;;;;5010534;28;20033;-57
2023/06/19 10:02:23;;;;;;;5.85;3.70;;;;;;;;;;5010026;28;20030;-58
2023/06/19 10:04:55;;;;;;;7.60;4.18;;;;;;;;;;5010012;28;20164;-58
2023/06/19 10:07:32;;;;;;;9.15;4.70;;;;;;;;;;5011901;28;20037;-58
2023/06/19 10:10:09;;;;;;;8.48;4.63;;;;;;;;;;5010586;28;20037;-58
2023/06/19 10:12:44;;;;;;;6.63;4.40;;;;;;;;;;5012368;28;20088;-57
2023/06/19 10:15:10;;;;;;;5.90;4.10;;;;;;;;;;5011253;28;20544;-55
2023/06/19 10:17:36;;;;;;;5.57;4.22;;;;;;;;;;5011799;28;20026;-57
2023/06/19 10:20:03;;;;;;;7.90;4.60;;;;;;;;;;5008018;28;20045;-56
2023/06/19 10:22:31;;;;;;;9.15;4.80;;;;;;;;;;5002749;28;20474;-58
2023/06/19 10:24:57;;;;;;;8.38;4.35;;;;;;;;;;5008288;28;20064;-59
2023/06/19 10:27:26;;;;;;;6.28;4.63;;;;;;;;;;5002757;28;20499;-54
2023/06/19 10:29:57;;;;;;;5.43;3.85;;;;;;;;;;5007905;28;20045;-58
2023/06/19 10:32:23;;;;;;;6.55;3.78;;;;;;;;;;5008136;28;20077;-55
2023/06/19 10:34:48;;;;;;;9.45;3.85;;;;;;;;;;5007862;28;20422;-55
2023/06/19 10:37:15;;;;;;;6.60;3.63;;;;;;;;;;5009171;28;20081;-51
2023/06/19 10:39:41;;;;;;;6.55;4.70;;;;;;;;;;5020799;28;20034;-55
2023/06/19 10:42:08;;;;;;;7.22;4.50;;;;;;;;;;5016406;28;20038;-53
2023/06/19 10:44:34;;;;;;;9.02;5.18;;;;;;;;;;5011467;28;20103;-56
2023/06/19 10:47:01;;;;;;;5.55;4.35;;;;;;;;;;5011081;28;20026;-51
2023/06/19 10:49:26;;;;;;;5.82;3.95;;;;;;;;;;5007514;28;20061;-59
2023/06/19 10:51:57;;;;;;;6.75;4.10;;;;;;;;;;4991859;28;20436;-54
2023/06/19 10:54:22;;;;;;;5.43;3.80;;;;;;;;;;4996617;28;20046;-54
2023/06/19 10:56:48;;;;;;;7.45;4.20;;;;;;;;;;4991822;28;20041;-56
2023/06/19 10:59:14;;;;;;;7.38;4.50;;;;;;;;;;4999944;28;20034;-56
2023/06/19 11:01:50;;;;;;;8.73;4.43;;;;;;;;;;5006879;28;20057;-57
2023/06/19 11:04:16;;;;;;;7.82;4.57;;;;;;;;;;5006683;28;20136;-57
2023/06/19 11:06:43;;;;;;;7.43;4.75;;;;;;;;;;5011570;28;20033;-57
2023/06/19 11:09:10;;;;;;;6.75;4.30;;;;;;;;;;5015907;28;20115;-56
2023/06/19 11:11:41;;;;;;;6.53;4.00;;;;;;;;;;5019047;28;20538;-57
2023/06/19 11:14:06;;;;;;;;;;;;;;;;;;5011107;28;20025;-56
2023/06/19 11:16:33;;;;;;;7.72;4.15;;;;;;;;;;5011152;28;20531;-56
2023/06/19 11:19:00;;;;;;;5.13;3.70;;;;;;;;;;5004991;28;20113;-59
2023/06/19 11:21:39;;;;;;;6.70;4.00;;;;;;;;;;5000379;28;20089;-51
2023/06/19 11:24:14;;;;;;;7.75;3.90;;;;;;;;;;5008433;28;20038;-58
2023/06/19 11:26:43;;;;;;;6.85;4.45;;;;;;;;;;5011417;28;20045;-57
2023/06/19 11:29:21;;;;;;;7.65;4.60;;;;;;;;;;5009531;28;20069;-57
2023/06/19 11:31:48;;;;;;;7.93;4.43;;;;;;;;;;5010575;28;20041;-57
2023/06/19 11:34:14;;;;;;;8.55;4.30;;;;;;;;;;5008777;28;20534;-56
2023/06/19 11:36:41;;;;;;;6.72;4.00;;;;;;;;;;5011070;28;20030;-58
2023/06/19 11:39:14;;;;;;;8.05;4.18;;;;;;;;;;5023154;28;20062;-55
2023/06/19 11:41:41;;;;;;;6.70;3.83;;;;;;;;;;5011881;28;20046;-54
2023/06/19 11:44:09;;;;;;;9.43;4.38;;;;;;;;;;5013729;28;20029;-53
2023/06/19 11:46:34;;;;;;;6.45;4.20;;;;;;;;;;5008594;28;20065;-56
2023/06/19 11:49:13;;;;;;;9.18;4.40;;;;;;;;;;5009631;28;20100;-59
2023/06/19 11:51:39;;;;;;;6.32;4.28;;;;;;;;;;5033188;28;20124;-55
2023/06/19 11:54:07;;;;;;;7.85;4.72;;;;;;;;;;5018472;28;20176;-54
2023/06/19 11:56:32;;;;;;;7.78;5.00;;;;;;;;;;5013921;28;20042;-56
2023/06/19 11:58:57;;;;;;;8.70;4.60;;;;;;;;;;5013784;28;20033;-57
2023/06/19 12:01:23;;;;;;;7.53;4.57;;;;;;;;;;5008200;28;20026;-57
2023/06/19 12:03:48;;;;;;;8.43;4.50;;;;;;;;;;4997556;28;20042;-55
2023/06/19 12:06:14;;;;;;;7.57;4.55;;;;;;;;;;5015407;28;20096;-53
2023/06/19 12:08:39;;;;;;;8.18;4.32;;;;;;;;;;5009607;28;20022;-56
2023/06/19 12:11:07;;;;;;;6.03;4.32;;;;;;;;;;5013285;28;20113;-57
2023/06/19 12:13:33;;;;;;;6.93;4.63;;;;;;;;;;5010531;28;20034;-57
2023/06/19 12:15:58;;;;;;;7.13;4.50;;;;;;;;;;5013595;28;20101;-57
2023/06/19 12:18:24;;;;;;;10.15;4.60;;;;;;;;;;5011997;28;20046;-57
2023/06/19 12:20:49;;;;;;;10.00;4.75;;;;;;;;;;5020044;28;20064;-57
2023/06/19 12:23:15;;;;;;;7.57;4.80;;;;;;;;;;5032646;28;20028;-58
2023/06/19 12:25:40;;;;;;;7.72;4.50;;;;;;;;;;5016512;28;20072;-51
2023/06/19 12:28:07;;;;;;;7.18;4.80;;;;;;;;;;5012787;28;20045;-56
2023/06/19 12:30:34;;;;;;;9.77;4.90;;;;;;;;;;5013141;28;20447;-60
2023/06/19 12:32:59;;;;;;;6.93;4.75;;;;;;;;;;5011470;28;20088;-61
2023/06/19 12:35:25;;;;;;;7.32;4.50;;;;;;;;;;4999096;28;20092;-60
2023/06/19 12:37:52;;;;;;;10.18;4.63;;;;;;;;;;5012467;28;20030;-61
2023/06/19 12:40:17;;;;;;;7.88;4.80;;;;;;;;;;5010313;28;20192;-57
2023/06/19 12:42:43;;;;;;;8.57;5.22;;;;;;;;;;5009801;28;20526;-60
2023/06/19 12:45:09;;;;;;;6.75;5.25;;;;;;;;;;5012233;28;20386;-60
2023/06/19 12:47:35;;;;;;;7.88;5.22;;;;;;;;;;5013414;28;20356;-60
2023/06/19 12:50:01;;;;;;;6.13;4.65;;;;;;;;;;5005202;28;20109;-60
2023/06/19 12:52:26;;;;;;;6.82;4.70;;;;;;;;;;5006129;28;20200;-60
2023/06/19 12:54:52;;;;;;;8.13;5.20;;;;;;;;;;5010565;28;20033;-59
2023/06/19 12:57:17;;;;;;;6.57;5.00;;;;;;;;;;5010878;28;20049;-60
2023/06/19 12:59:43;;;;;;;6.30;4.95;;;;;;;;;;5013292;28;20296;-61
2023/06/19 13:02:08;;;;;;;9.45;5.00;;;;;;;;;;5005352;28;20065;-60
2023/06/19 13:04:33;;;;;;;8.30;5.60;;;;;;;;;;5024093;28;20030;-61
2023/06/19 13:06:59;;;;;;;8.43;5.55;;;;;;;;;;5023417;28;20069;-61
2023/06/19 13:09:24;;;;;;;8.90;5.20;;;;;;;;;;5028168;28;20515;-61
2023/06/19 13:11:49;;;;;;;8.75;5.45;;;;;;;;;;4993448;28;20049;-61
2023/06/19 13:14:15;;;;;;;8.48;5.45;;;;;;;;;;5008427;28;20487;-61
2023/06/19 13:16:40;;;;;;;7.03;5.70;;;;;;;;;;5025484;28;20389;-61
2023/06/19 13:19:06;;;;;;;8.52;5.30;;;;;;;;;;5023718;28;20034;-61
2023/06/19 13:21:31;;;;;;;10.63;5.30;;;;;;;;;;5012461;28;20109;-61
2023/06/19 13:23:57;;;;;;;9.90;5.00;;;;;;;;;;5012592;28;20032;-60
2023/06/19 13:26:22;;;;;;;7.75;5.20;;;;;;;;;;4998241;28;20050;-61
2023/06/19 13:28:47;;;;;;;8.25;5.32;;;;;;;;;;4993536;28;20050;-61
2023/06/19 13:31:13;;;;;;;8.95;5.10;;;;;;;;;;5008788;28;20034;-60
2023/06/19 13:33:38;;;;;;;9.55;4.90;;;;;;;;;;5028062;28;20362;-59
2023/06/19 13:36:04;;;;;;;6.90;4.90;;;;;;;;;;5016132;28;20033;-60
2023/06/19 13:38:30;;;;;;;8.20;5.10;;;;;;;;;;5026350;28;20042;-60
2023/06/19 13:40:55;;;;;;;8.32;5.28;;;;;;;;;;4997839;28;20046;-59
2023/06/19 13:43:23;;;;;;;7.18;5.22;;;;;;;;;;5003626;28;20527;-61
2023/06/19 13:45:49;;;;;;;7.18;5.13;;;;;;;;;;5005726;28;20041;-60
2023/06/19 13:48:14;;;;;;;8.70;5.07;;;;;;;;;;5011135;28;20117;-60
2023/06/19 13:50:40;;;;;;;8.00;5.03;;;;;;;;;;5009489;28;20034;-62
2023/06/19 13:53:05;;;;;;;8.48;5.18;;;;;;;;;;5003247;28;20033;-61
2023/06/19 13:55:30;;;;;;;6.93;4.75;;;;;;;;;;5001911;28;20037;-61
2023/06/19 13:57:56;;;;;;;7.20;5.18;;;;;;;;;;5019765;28;20037;-60
2023/06/19 14:00:21;;;;;;;7.38;5.70;;;;;;;;;;5020757;28;20034;-61
2023/06/19 14:02:47;;;;;;;11.18;5.20;;;;;;;;;;5015873;28;20061;-61
2023/06/19 14:05:15;;;;;;;8.02;5.10;;;;;;;;;;4998249;28;20037;-61
2023/06/19 14:07:44;;;;;;;9.57;5.00;;;;;;;;;;5011771;28;20042;-61
2023/06/19 14:10:10;;;;;;;6.97;5.30;;;;;;;;;;5010777;28;20038;-61
2023/06/19 14:12:35;;;;;;;5.45;4.32;;;;;;;;;;5011188;28;20033;-61
2023/06/19 14:15:01;;;;;;;8.45;4.40;;;;;;;;;;5010270;28;20105;-60
2023/06/19 14:17:26;;;;;;;8.88;4.38;;;;;;;;;;5009331;28;20105;-60
2023/06/19 14:19:52;;;;;;;5.70;4.28;;;;;;;;;;5003546;28;20058;-60
2023/06/19 14:22:17;;;;;;;6.68;4.15;;;;;;;;;;4995145;28;20459;-60
2023/06/19 14:24:43;;;;;;;6.68;4.22;;;;;;;;;;5003247;28;20044;-61
2023/06/19 14:27:09;;;;;;;7.35;4.20;;;;;;;;;;5009975;28;20034;-61
2023/06/19 14:29:34;;;;;;;7.55;4.40;;;;;;;;;;5000491;28;20064;-60
2023/06/19 14:31:59;;;;;;;9.43;4.50;;;;;;;;;;5010684;28;20034;-61
2023/06/19 14:34:25;;;;;;;5.82;4.07;;;;;;;;;;5008695;28;20152;-60
2023/06/19 14:36:50;;;;;;;8.35;4.15;;;;;;;;;;4993408;28;20038;-60
2023/06/19 14:39:16;;;;;;;5.43;4.00;;;;;;;;;;4990642;28;20118;-60